Time;durP1;ratioP1;P1;durP2;ratioP2;P2;SDS_P1;SDS_P2;PMS_P1;PMS_P2;Temp;Humidity;BMP_temperature;BMP_pressure;BME280_temperature;BME280_humidity;BME280_pressure;Samples;Min_cycle;Max_cycle;Signal;HPM_P1;HPM_P2
2020/12/17 00:02:16;;;;;;;11.13;10.03;;;10.80;71.60;;;;;;4851875;29;20471;-73
2020/12/17 00:04:43;;;;;;;11.50;10.30;;;10.80;71.10;;;;;;4849412;29;20466;-73
2020/12/17 00:07:10;;;;;;;10.60;9.60;;;10.80;71.10;;;;;;4841708;29;20469;-73
2020/12/17 00:09:37;;;;;;;10.03;9.13;;;10.80;71.00;;;;;;4853779;29;20468;-73
2020/12/17 00:12:03;;;;;;;11.47;10.37;;;10.80;71.00;;;;;;4860323;29;20547;-73
2020/12/17 00:14:30;;;;;;;9.43;8.40;;;10.80;71.00;;;;;;4853986;29;20458;-72
2020/12/17 00:16:56;;;;;;;11.27;10.20;;;10.80;71.00;;;;;;4841962;29;20462;-73
2020/12/17 00:19:22;;;;;;;11.83;9.87;;;10.80;71.10;;;;;;4849330;29;20495;-73
2020/12/17 00:21:52;;;;;;;14.70;9.97;;;10.80;71.10;;;;;;4860425;29;20529;-73
2020/12/17 00:24:19;;;;;;;18.50;11.30;;;10.80;71.00;;;;;;4858926;29;20828;-73
2020/12/17 00:26:46;;;;;;;15.00;11.87;;;10.80;70.80;;;;;;4860282;29;20467;-73
2020/12/17 00:29:12;;;;;;;11.00;9.90;;;10.80;71.00;;;;;;4859966;29;20461;-73
2020/12/17 00:31:39;;;;;;;9.97;8.97;;;10.70;71.00;;;;;;4860364;29;20463;-74
2020/12/17 00:34:05;;;;;;;11.30;10.20;;;10.70;71.70;;;;;;4857711;29;20461;-73
2020/12/17 00:36:32;;;;;;;11.00;10.00;;;10.70;71.20;;;;;;4859010;29;20459;-73
2020/12/17 00:38:58;;;;;;;10.47;9.40;;;10.80;71.10;;;;;;4860120;29;20916;-72
2020/12/17 00:41:26;;;;;;;9.77;8.97;;;10.80;71.00;;;;;;4860126;29;20526;-72
2020/12/17 00:43:52;;;;;;;10.50;9.40;;;10.70;70.80;;;;;;4859554;29;20457;-73
2020/12/17 00:46:19;;;;;;;10.70;9.60;;;10.70;71.00;;;;;;4860101;29;20465;-73
2020/12/17 00:48:45;;;;;;;10.60;9.27;;;10.70;70.90;;;;;;4859513;29;20460;-73
2020/12/17 00:51:12;;;;;;;10.97;9.97;;;10.70;71.00;;;;;;4859903;29;20816;-73
2020/12/17 00:53:38;;;;;;;9.97;8.97;;;10.70;71.00;;;;;;4859744;29;20464;-73
2020/12/17 00:56:06;;;;;;;12.17;9.80;;;10.70;70.80;;;;;;4859861;29;20472;-73
2020/12/17 00:58:33;;;;;;;9.80;9.00;;;10.70;70.70;;;;;;4859669;29;20994;-73
2020/12/17 01:00:59;;;;;;;8.97;8.20;;;10.70;70.70;;;;;;4859983;29;20570;-72
2020/12/17 01:03:26;;;;;;;9.93;9.10;;;10.70;70.70;;;;;;4863245;29;20467;-73
2020/12/17 01:05:52;;;;;;;11.40;8.90;;;10.70;70.70;;;;;;4863226;29;20512;-73
2020/12/17 01:08:19;;;;;;;9.77;8.90;;;10.60;70.80;;;;;;4863613;29;20898;-73
2020/12/17 01:10:45;;;;;;;10.17;8.67;;;10.60;70.90;;;;;;4863346;29;20919;-73
2020/12/17 01:13:12;;;;;;;10.60;9.57;;;10.60;70.90;;;;;;4863476;29;20462;-73
2020/12/17 01:15:39;;;;;;;9.70;8.70;;;10.60;70.90;;;;;;4863158;29;20486;-73
2020/12/17 01:18:06;;;;;;;9.90;9.10;;;10.60;70.90;;;;;;4862941;29;20505;-73
2020/12/17 01:20:32;;;;;;;10.23;9.17;;;10.60;70.90;;;;;;4864369;29;20456;-73
2020/12/17 01:22:59;;;;;;;9.23;8.33;;;10.60;70.90;;;;;;4863311;29;20463;-73
2020/12/17 01:25:25;;;;;;;9.27;8.47;;;10.60;70.40;;;;;;4862911;29;20508;-73
2020/12/17 01:27:52;;;;;;;9.53;8.57;;;10.50;70.20;;;;;;4861235;29;20472;-72
2020/12/17 01:30:18;;;;;;;10.00;9.10;;;10.50;70.20;;;;;;4862768;29;20458;-73
2020/12/17 01:32:46;;;;;;;10.47;9.43;;;10.50;70.50;;;;;;4863143;29;20478;-72
2020/12/17 01:35:12;;;;;;;9.63;8.67;;;10.60;70.50;;;;;;4861527;29;20519;-73
2020/12/17 01:37:39;;;;;;;10.43;8.80;;;10.60;70.40;;;;;;4863037;29;20462;-73
2020/12/17 01:40:05;;;;;;;8.90;8.20;;;10.50;70.20;;;;;;4862757;29;20969;-73
2020/12/17 01:42:32;;;;;;;9.50;8.13;;;10.50;70.20;;;;;;4863119;29;20454;-73
2020/12/17 01:44:58;;;;;;;9.23;8.43;;;10.50;70.00;;;;;;4862552;29;20455;-73
2020/12/17 01:47:34;;;;;;;8.77;8.07;;;10.40;70.10;;;;;;4862336;29;20468;-73
2020/12/17 01:50:05;;;;;;;8.40;7.60;;;10.40;70.10;;;;;;4862336;29;20562;-73
2020/12/17 01:52:31;;;;;;;9.73;8.90;;;10.40;69.70;;;;;;4862756;29;20461;-73
2020/12/17 01:54:58;;;;;;;9.17;8.40;;;10.30;69.60;;;;;;4860814;29;20458;-72
2020/12/17 01:57:31;;;;;;;9.97;8.93;;;10.20;69.50;;;;;;4862408;29;20460;-73
2020/12/17 02:00:05;;;;;;;9.90;9.00;;;10.20;69.50;;;;;;4862142;29;20560;-73
2020/12/17 02:02:33;;;;;;;9.20;8.30;;;10.10;69.60;;;;;;4862667;29;20458;-73
2020/12/17 02:05:01;;;;;;;10.87;9.87;;;10.10;69.50;;;;;;4862315;29;20459;-73
2020/12/17 02:07:28;;;;;;;7.90;7.20;;;10.10;69.70;;;;;;4862379;29;20988;-73
2020/12/17 02:09:55;;;;;;;8.67;7.87;;;10.10;69.70;;;;;;4862323;29;20487;-73
2020/12/17 02:12:21;;;;;;;7.93;7.23;;;10.10;69.70;;;;;;4862432;29;20517;-73
2020/12/17 02:14:48;;;;;;;9.03;8.20;;;10.10;69.80;;;;;;4861986;29;20473;-73
2020/12/17 02:17:15;;;;;;;9.60;8.47;;;10.10;69.80;;;;;;4862014;29;20469;-73
2020/12/17 02:19:41;;;;;;;8.33;7.50;;;10.10;69.60;;;;;;4860665;29;20508;-73
2020/12/17 02:22:09;;;;;;;11.03;9.93;;;10.10;69.60;;;;;;4862031;29;20517;-74
2020/12/17 02:24:38;;;;;;;9.20;8.40;;;10.10;69.70;;;;;;4861916;29;20458;-73
2020/12/17 02:27:04;;;;;;;8.93;8.13;;;10.10;69.60;;;;;;4862013;29;20478;-73
2020/12/17 02:29:31;;;;;;;8.87;8.07;;;10.10;69.50;;;;;;4862147;29;20531;-73
2020/12/17 02:31:57;;;;;;;9.00;8.20;;;10.10;69.20;;;;;;4861734;29;20474;-73
2020/12/17 02:34:24;;;;;;;8.50;7.70;;;10.00;69.10;;;;;;4861871;29;20472;-73
2020/12/17 02:36:50;;;;;;;9.47;8.57;;;10.00;69.20;;;;;;4860077;29;20463;-73
2020/12/17 02:39:17;;;;;;;11.17;10.17;;;10.00;69.50;;;;;;4861146;29;20500;-73
2020/12/17 02:41:44;;;;;;;8.50;7.70;;;10.00;69.40;;;;;;4861991;29;20459;-74
2020/12/17 02:44:12;;;;;;;9.07;8.27;;;10.00;69.30;;;;;;4854455;29;20468;-73
2020/12/17 02:46:39;;;;;;;9.00;8.10;;;10.00;69.30;;;;;;4841713;29;21033;-74
2020/12/17 02:49:05;;;;;;;9.13;8.03;;;10.00;69.20;;;;;;4859762;29;20459;-74
2020/12/17 02:51:32;;;;;;;11.17;7.83;;;10.00;68.80;;;;;;4861554;29;20955;-74
2020/12/17 02:53:58;;;;;;;9.00;8.10;;;9.90;69.80;;;;;;4858495;29;20467;-73
2020/12/17 02:56:25;;;;;;;11.30;10.20;;;9.90;69.90;;;;;;4845577;29;20519;-73
2020/12/17 02:58:52;;;;;;;10.27;8.87;;;9.90;70.10;;;;;;4842920;29;20591;-74
2020/12/17 03:01:18;;;;;;;9.50;8.50;;;9.90;70.00;;;;;;4857727;29;20482;-73
2020/12/17 03:03:45;;;;;;;8.30;7.50;;;9.90;70.20;;;;;;4860979;29;20457;-73
2020/12/17 03:06:11;;;;;;;8.23;7.53;;;9.90;70.00;;;;;;4861045;29;20826;-73
2020/12/17 03:08:38;;;;;;;8.93;8.03;;;9.90;70.10;;;;;;4861168;29;20513;-73
2020/12/17 03:11:04;;;;;;;9.63;8.60;;;9.90;70.00;;;;;;4861343;29;21035;-74
2020/12/17 03:13:31;;;;;;;8.93;7.77;;;9.90;70.00;;;;;;4859473;29;20477;-73
2020/12/17 03:15:58;;;;;;;9.70;8.90;;;9.80;69.70;;;;;;4861043;29;20468;-73
2020/12/17 03:18:25;;;;;;;7.40;6.70;;;9.80;69.60;;;;;;4861012;29;20530;-73
2020/12/17 03:20:51;;;;;;;7.87;7.27;;;9.80;69.80;;;;;;4860376;29;21022;-73
2020/12/17 03:23:18;;;;;;;8.37;6.70;;;9.80;70.00;;;;;;4860469;29;20462;-73
2020/12/17 03:25:44;;;;;;;8.80;8.00;;;9.80;70.40;;;;;;4860873;29;20457;-73
2020/12/17 03:28:11;;;;;;;8.10;7.30;;;9.80;70.50;;;;;;4861131;29;20478;-74
2020/12/17 03:30:37;;;;;;;7.77;7.17;;;9.90;70.60;;;;;;4860704;29;20956;-75
2020/12/17 03:33:05;;;;;;;7.40;6.73;;;9.90;70.60;;;;;;4860872;29;20460;-75
2020/12/17 03:35:31;;;;;;;8.03;7.43;;;9.90;70.40;;;;;;4860711;29;20476;-74
2020/12/17 03:37:58;;;;;;;9.40;8.50;;;9.90;70.40;;;;;;4860881;29;20462;-74
2020/12/17 03:40:26;;;;;;;8.57;7.53;;;9.90;70.80;;;;;;4858880;29;20902;-74
2020/12/17 03:42:52;;;;;;;8.80;7.77;;;10.00;69.70;;;;;;4859543;29;20550;-74
2020/12/17 03:45:19;;;;;;;8.60;7.87;;;10.00;69.80;;;;;;4860415;29;20471;-76
2020/12/17 03:47:46;;;;;;;7.37;6.67;;;10.00;69.60;;;;;;4842571;29;20452;-74
2020/12/17 03:50:13;;;;;;;8.17;7.37;;;10.00;69.80;;;;;;4857656;29;20460;-74
2020/12/17 03:52:40;;;;;;;8.40;7.50;;;10.00;69.70;;;;;;4859964;29;20467;-74
2020/12/17 03:55:07;;;;;;;7.53;6.83;;;10.00;69.70;;;;;;4860578;29;20470;-74
2020/12/17 03:57:33;;;;;;;7.93;6.77;;;10.00;69.60;;;;;;4860360;29;20459;-74
2020/12/17 04:00:00;;;;;;;6.93;6.37;;;10.00;69.60;;;;;;4860476;29;20508;-75
2020/12/17 04:02:26;;;;;;;8.50;7.60;;;10.00;69.80;;;;;;4860013;29;20467;-74
2020/12/17 04:04:53;;;;;;;8.00;7.20;;;10.00;69.70;;;;;;4858541;29;20542;-75
2020/12/17 04:07:21;;;;;;;8.67;7.80;;;10.00;69.40;;;;;;4859585;29;20463;-74
2020/12/17 04:09:57;;;;;;;7.17;6.47;;;10.10;69.60;;;;;;4860408;29;20517;-77
2020/12/17 04:12:24;;;;;;;8.50;7.70;;;10.00;69.40;;;;;;4859336;29;20852;-73
2020/12/17 04:14:50;;;;;;;9.00;8.10;;;10.00;69.50;;;;;;4859479;29;20497;-74
2020/12/17 04:17:17;;;;;;;9.17;8.30;;;10.00;69.20;;;;;;4858971;29;20464;-75
2020/12/17 04:19:43;;;;;;;9.80;8.27;;;10.00;69.20;;;;;;4859104;29;20494;-75
2020/12/17 04:22:16;;;;;;;13.13;8.80;;;10.00;69.20;;;;;;4857108;29;20467;-75
2020/12/17 04:24:54;;;;;;;9.23;8.53;;;10.00;69.20;;;;;;4860228;29;20500;-76
2020/12/17 04:27:26;;;;;;;9.10;7.87;;;9.90;70.40;;;;;;4859772;29;20470;-74
2020/12/17 04:29:53;;;;;;;9.43;8.47;;;9.90;70.50;;;;;;4858757;29;20537;-74
2020/12/17 04:32:19;;;;;;;10.40;9.50;;;9.90;70.30;;;;;;4858851;29;20457;-75
2020/12/17 04:34:46;;;;;;;12.53;9.57;;;9.80;70.50;;;;;;4858150;29;20970;-74
2020/12/17 04:37:12;;;;;;;10.30;9.30;;;9.80;70.70;;;;;;4862456;29;20455;-74
2020/12/17 04:39:39;;;;;;;9.57;8.57;;;9.80;70.70;;;;;;4862396;29;20502;-74
2020/12/17 04:42:07;;;;;;;8.70;7.80;;;9.70;70.60;;;;;;4863451;29;20470;-74
2020/12/17 04:44:34;;;;;;;9.97;9.00;;;9.70;70.80;;;;;;4862756;29;20469;-73
2020/12/17 04:47:03;;;;;;;9.47;8.47;;;9.70;71.00;;;;;;4862970;29;20470;-73
2020/12/17 04:49:34;;;;;;;8.60;7.80;;;9.70;70.90;;;;;;4862076;29;20481;-74
2020/12/17 04:52:00;;;;;;;10.10;8.70;;;9.70;70.90;;;;;;4862284;29;20493;-74
2020/12/17 04:54:29;;;;;;;10.13;9.23;;;9.60;70.60;;;;;;4862502;29;20567;-74
2020/12/17 04:57:07;;;;;;;9.17;8.33;;;9.70;70.70;;;;;;4863336;29;20901;-74
2020/12/17 04:59:45;;;;;;;9.53;8.53;;;9.70;70.70;;;;;;4861701;29;20577;-74
2020/12/17 05:02:12;;;;;;;9.67;8.37;;;9.70;70.60;;;;;;4862354;29;20977;-74
2020/12/17 05:04:41;;;;;;;10.60;9.60;;;9.70;70.60;;;;;;4862396;29;20978;-73
2020/12/17 05:07:10;;;;;;;9.40;8.50;;;9.70;70.60;;;;;;4862426;29;20468;-74
2020/12/17 05:09:38;;;;;;;9.27;8.37;;;9.70;70.50;;;;;;4862175;29;20462;-74
2020/12/17 05:12:04;;;;;;;11.00;10.00;;;9.70;70.20;;;;;;4862500;29;20960;-74
2020/12/17 05:14:32;;;;;;;12.13;10.83;;;9.70;70.30;;;;;;4862769;29;20472;-74
2020/12/17 05:16:59;;;;;;;11.93;10.20;;;9.70;70.20;;;;;;4862414;29;20467;-75
2020/12/17 05:19:26;;;;;;;11.70;9.03;;;9.70;69.90;;;;;;4861350;29;20499;-73
2020/12/17 05:21:53;;;;;;;10.40;9.40;;;9.70;70.10;;;;;;4862231;29;20473;-73
2020/12/17 05:24:21;;;;;;;11.47;10.27;;;9.60;70.00;;;;;;4862445;29;21009;-74
2020/12/17 05:26:48;;;;;;;10.30;9.33;;;9.50;70.20;;;;;;4859620;29;20535;-73
2020/12/17 05:29:16;;;;;;;10.53;9.40;;;9.40;70.30;;;;;;4860750;29;20551;-73
2020/12/17 05:31:43;;;;;;;15.53;9.80;;;9.40;70.50;;;;;;4862518;29;20467;-73
2020/12/17 05:34:10;;;;;;;10.80;9.77;;;9.30;70.60;;;;;;4861941;29;20451;-73
2020/12/17 05:36:38;;;;;;;9.13;8.23;;;9.30;70.60;;;;;;4862386;29;20475;-73
2020/12/17 05:39:12;;;;;;;13.27;9.90;;;9.30;70.70;;;;;;4861031;29;21023;-73
2020/12/17 05:41:40;;;;;;;12.27;9.70;;;9.40;70.30;;;;;;4862133;29;20543;-73
2020/12/17 05:44:14;;;;;;;9.90;9.00;;;9.40;70.20;;;;;;4862340;29;20464;-73
2020/12/17 05:46:43;;;;;;;9.87;8.97;;;9.40;69.70;;;;;;4861644;29;20470;-73
2020/12/17 05:49:11;;;;;;;10.60;9.50;;;9.40;69.50;;;;;;4861567;29;20470;-74
2020/12/17 05:51:39;;;;;;;9.80;8.60;;;9.50;69.50;;;;;;4862024;29;20474;-74
2020/12/17 05:54:10;;;;;;;10.47;9.47;;;9.50;69.20;;;;;;4860136;29;20540;-73
2020/12/17 05:56:37;;;;;;;10.07;9.10;;;9.50;69.10;;;;;;4859396;29;20459;-73
2020/12/17 05:59:05;;;;;;;12.13;9.10;;;9.40;68.90;;;;;;4857584;29;20498;-73
2020/12/17 06:01:33;;;;;;;11.00;9.37;;;9.40;68.90;;;;;;4857054;29;20485;-73
2020/12/17 06:04:14;;;;;;;9.83;8.93;;;9.40;69.10;;;;;;4862509;29;20535;-73
2020/12/17 06:06:45;;;;;;;9.00;8.20;;;9.40;69.00;;;;;;4862224;29;20468;-74
2020/12/17 06:09:20;;;;;;;10.10;8.63;;;9.40;69.10;;;;;;4861360;29;20883;-74
2020/12/17 06:11:47;;;;;;;10.00;9.10;;;9.40;69.20;;;;;;4860970;29;20880;-75
2020/12/17 06:14:15;;;;;;;10.50;8.90;;;9.40;69.10;;;;;;4859943;29;20471;-75
2020/12/17 06:16:44;;;;;;;8.60;7.80;;;9.40;68.90;;;;;;4859756;29;20973;-75
2020/12/17 06:19:15;;;;;;;11.40;9.20;;;9.40;69.00;;;;;;4861505;29;20594;-73
2020/12/17 06:21:42;;;;;;;9.87;8.90;;;9.40;69.10;;;;;;4857928;29;21042;-74
2020/12/17 06:24:08;;;;;;;9.93;8.80;;;9.40;69.00;;;;;;4860817;29;20464;-73
2020/12/17 06:26:39;;;;;;;10.17;9.10;;;9.40;69.10;;;;;;4860264;29;20521;-73
2020/12/17 06:29:18;;;;;;;9.73;8.73;;;9.40;69.10;;;;;;4860545;29;20538;-75
2020/12/17 06:31:53;;;;;;;9.80;8.80;;;9.50;69.10;;;;;;4860913;29;20475;-75
2020/12/17 06:34:21;;;;;;;11.03;9.30;;;9.50;69.10;;;;;;4866129;29;20464;-75
2020/12/17 06:36:56;;;;;;;9.33;8.53;;;9.50;69.00;;;;;;4862309;29;20474;-74
2020/12/17 06:39:23;;;;;;;9.77;8.87;;;9.50;68.90;;;;;;4860854;29;20498;-74
2020/12/17 06:41:49;;;;;;;9.17;8.20;;;9.50;68.80;;;;;;4868547;29;20897;-74
2020/12/17 06:44:26;;;;;;;9.33;8.50;;;9.50;68.80;;;;;;4859878;29;20556;-75
2020/12/17 06:46:55;;;;;;;9.50;8.00;;;9.60;68.90;;;;;;4851647;29;20473;-76
2020/12/17 06:49:26;;;;;;;9.73;8.10;;;9.60;68.70;;;;;;4859484;29;20550;-78
2020/12/17 06:52:06;;;;;;;8.20;7.50;;;9.60;68.50;;;;;;4859278;29;20566;-78
2020/12/17 06:54:40;;;;;;;8.87;7.97;;;9.60;68.30;;;;;;4859648;29;20869;-77
2020/12/17 06:57:09;;;;;;;7.70;6.40;;;9.60;68.30;;;;;;4859802;29;20465;-75
2020/12/17 06:59:36;;;;;;;8.37;7.67;;;9.50;68.40;;;;;;4855741;29;20491;-76
2020/12/17 07:02:03;;;;;;;11.30;8.20;;;9.50;68.40;;;;;;4860162;29;20858;-77
2020/12/17 07:04:41;;;;;;;7.97;6.90;;;9.50;68.40;;;;;;4860277;29;20474;-76
2020/12/17 07:07:16;;;;;;;8.00;7.20;;;9.40;68.30;;;;;;4859219;29;20612;-76
2020/12/17 07:09:44;;;;;;;9.40;7.10;;;9.50;68.60;;;;;;4860011;29;20476;-77
2020/12/17 07:12:12;;;;;;;9.40;7.37;;;9.50;68.60;;;;;;4860307;29;20477;-77
2020/12/17 07:14:41;;;;;;;7.40;6.70;;;9.50;68.60;;;;;;4860139;29;20481;-76
2020/12/17 07:17:08;;;;;;;7.60;6.90;;;9.50;68.60;;;;;;4858638;29;20464;-76
2020/12/17 07:19:44;;;;;;;8.70;6.83;;;9.50;68.50;;;;;;4860261;29;20497;-76
2020/12/17 07:22:13;;;;;;;6.63;6.03;;;9.60;68.50;;;;;;4858839;29;20478;-76
2020/12/17 07:24:42;;;;;;;6.73;5.70;;;9.60;68.50;;;;;;4859592;29;20497;-76
2020/12/17 07:27:11;;;;;;;8.07;5.40;;;9.60;68.40;;;;;;4860732;29;20945;-75
2020/12/17 07:30:02;;;;;;;6.13;5.33;;;9.60;68.50;;;;;;4860500;29;20854;-76
2020/12/17 07:32:31;;;;;;;5.80;4.83;;;9.60;68.60;;;;;;4859905;29;20449;-76
2020/12/17 07:35:14;;;;;;;5.87;5.27;;;9.60;68.90;;;;;;4859656;29;20962;-75
2020/12/17 07:37:42;;;;;;;5.63;4.37;;;9.60;68.60;;;;;;4857113;29;21110;-76
2020/12/17 07:40:21;;;;;;;4.93;4.30;;;9.70;68.70;;;;;;4859971;29;20505;-75
2020/12/17 07:43:09;;;;;;;4.80;4.27;;;9.70;68.60;;;;;;4857692;29;20488;-76
2020/12/17 07:45:50;;;;;;;3.87;3.47;;;9.70;68.80;;;;;;4859392;29;20450;-76
2020/12/17 07:48:46;;;;;;;5.07;4.67;;;9.80;68.80;;;;;;4850056;29;20500;-76
2020/12/17 07:51:33;;;;;;;4.83;4.00;;;9.80;68.80;;;;;;4860064;29;20453;-76
2020/12/17 07:54:05;;;;;;;3.80;3.50;;;9.90;68.40;;;;;;4854557;29;20975;-76
2020/12/17 07:56:32;;;;;;;4.30;3.90;;;9.90;68.40;;;;;;4860725;29;20468;-76
2020/12/17 07:59:04;;;;;;;6.13;3.77;;;10.00;67.00;;;;;;4860900;29;20491;-77
2020/12/17 08:01:31;;;;;;;4.30;3.90;;;9.90;67.90;;;;;;4859124;29;20498;-76
2020/12/17 08:03:58;;;;;;;5.40;4.27;;;10.00;66.90;;;;;;4860216;29;20478;-77
2020/12/17 08:06:26;;;;;;;6.20;4.80;;;10.00;66.40;;;;;;4860038;29;20481;-77
2020/12/17 08:08:55;;;;;;;4.63;4.23;;;10.10;66.50;;;;;;4859041;29;20480;-76
2020/12/17 08:11:22;;;;;;;4.30;3.80;;;10.10;66.50;;;;;;4858524;29;20880;-76
2020/12/17 08:13:57;;;;;;;4.10;3.80;;;10.10;66.30;;;;;;4858908;29;20525;-76
2020/12/17 08:16:23;;;;;;;5.20;3.80;;;10.10;66.30;;;;;;4851250;29;20955;-76
2020/12/17 08:18:54;;;;;;;4.53;4.13;;;10.10;66.10;;;;;;4859960;29;20502;-78
2020/12/17 08:21:21;;;;;;;4.83;4.40;;;10.20;66.10;;;;;;4856192;29;20550;-77
2020/12/17 08:23:48;;;;;;;4.40;4.10;;;10.20;66.30;;;;;;4860036;29;20455;-76
2020/12/17 08:26:20;;;;;;;3.73;3.40;;;10.20;66.00;;;;;;4859806;29;20458;-77
2020/12/17 08:28:48;;;;;;;4.37;3.97;;;10.20;66.10;;;;;;4858483;29;20627;-76
2020/12/17 08:31:16;;;;;;;3.90;3.60;;;10.30;66.80;;;;;;4859281;29;20966;-77
2020/12/17 08:33:44;;;;;;;4.17;3.73;;;10.30;66.20;;;;;;4858924;29;20457;-76
2020/12/17 08:36:13;;;;;;;4.47;3.70;;;10.30;66.10;;;;;;4858765;29;20487;-76
2020/12/17 08:38:40;;;;;;;4.10;3.80;;;10.40;66.00;;;;;;4854799;29;20498;-76
2020/12/17 08:41:09;;;;;;;3.70;3.40;;;10.40;65.80;;;;;;4869702;29;20479;-76
2020/12/17 08:43:43;;;;;;;4.67;4.27;;;10.40;65.60;;;;;;4857136;29;20488;-77
2020/12/17 08:46:17;;;;;;;4.30;3.80;;;10.50;65.50;;;;;;4858934;29;20870;-77
2020/12/17 08:48:45;;;;;;;4.17;3.77;;;10.50;65.60;;;;;;4859284;29;20974;-76
2020/12/17 08:51:14;;;;;;;4.20;3.90;;;10.50;65.40;;;;;;4854142;29;20555;-76
2020/12/17 08:53:42;;;;;;;4.30;4.00;;;10.50;65.50;;;;;;4859609;29;20466;-78
2020/12/17 08:56:15;;;;;;;5.33;4.07;;;10.50;65.50;;;;;;4859993;29;20470;-76
2020/12/17 08:58:50;;;;;;;4.83;4.33;;;10.40;65.30;;;;;;4857481;29;20788;-76
2020/12/17 09:01:21;;;;;;;4.43;3.97;;;10.40;65.60;;;;;;4859043;29;20491;-76
2020/12/17 09:03:48;;;;;;;4.50;4.10;;;10.40;65.80;;;;;;4858907;29;20459;-76
2020/12/17 09:06:15;;;;;;;3.90;3.50;;;10.50;66.20;;;;;;4857694;29;20518;-77
2020/12/17 09:08:42;;;;;;;4.20;3.90;;;10.50;65.90;;;;;;4858962;29;20837;-77
2020/12/17 09:11:33;;;;;;;3.77;3.40;;;10.50;65.90;;;;;;4858148;29;20463;-75
2020/12/17 09:14:02;;;;;;;5.37;4.40;;;10.50;65.90;;;;;;4840360;29;21010;-76
2020/12/17 09:16:30;;;;;;;6.03;5.37;;;10.50;65.90;;;;;;4852397;29;20536;-76
2020/12/17 09:18:59;;;;;;;4.77;4.40;;;10.50;66.10;;;;;;4858730;29;20511;-77
2020/12/17 09:21:26;;;;;;;9.67;4.60;;;10.60;66.10;;;;;;4858944;29;20843;-76
2020/12/17 09:24:00;;;;;;;6.90;5.03;;;10.60;66.10;;;;;;4861275;29;20461;-76
2020/12/17 09:26:27;;;;;;;4.57;4.27;;;10.60;66.30;;;;;;4862984;29;20465;-76
2020/12/17 09:28:56;;;;;;;4.57;4.17;;;10.70;66.20;;;;;;4858237;29;20464;-76
2020/12/17 09:31:37;;;;;;;5.63;5.13;;;10.70;66.10;;;;;;4861608;29;20456;-76
2020/12/17 09:34:09;;;;;;;5.73;4.20;;;10.70;66.10;;;;;;4862230;29;20966;-76
2020/12/17 09:36:37;;;;;;;4.97;4.57;;;10.70;65.70;;;;;;4862415;29;20464;-77
2020/12/17 09:39:07;;;;;;;4.63;4.23;;;10.80;65.70;;;;;;4861747;29;20988;-77
2020/12/17 09:41:34;;;;;;;4.93;4.30;;;10.70;65.60;;;;;;4864289;29;20464;-76
2020/12/17 09:44:01;;;;;;;4.40;3.90;;;10.70;65.50;;;;;;4862429;29;20529;-76
2020/12/17 09:46:40;;;;;;;5.33;4.40;;;10.70;65.60;;;;;;4861674;29;20461;-76
2020/12/17 09:49:08;;;;;;;5.50;5.00;;;10.70;65.80;;;;;;4861753;29;20463;-77
2020/12/17 09:51:35;;;;;;;4.70;4.30;;;10.80;65.90;;;;;;4856907;29;20456;-75
2020/12/17 09:54:02;;;;;;;4.57;4.20;;;10.90;65.70;;;;;;4861351;29;20471;-76
2020/12/17 09:56:29;;;;;;;4.60;4.20;;;11.00;65.50;;;;;;4861965;29;20469;-76
2020/12/17 09:58:56;;;;;;;4.93;4.30;;;11.10;65.60;;;;;;4859401;29;20488;-76
2020/12/17 10:01:23;;;;;;;6.30;5.10;;;11.20;66.10;;;;;;4859058;29;20492;-76
2020/12/17 10:03:50;;;;;;;5.60;5.10;;;11.30;65.20;;;;;;4859758;29;20452;-77
2020/12/17 10:06:17;;;;;;;4.50;4.00;;;11.40;64.80;;;;;;4860989;29;20458;-76
2020/12/17 10:08:44;;;;;;;5.57;5.07;;;11.50;64.80;;;;;;4861368;29;20469;-76
2020/12/17 10:11:10;;;;;;;5.47;4.70;;;11.60;64.90;;;;;;4862087;29;20458;-76
2020/12/17 10:13:37;;;;;;;4.90;4.07;;;11.70;65.20;;;;;;4857215;29;20473;-76
2020/12/17 10:16:03;;;;;;;5.73;4.60;;;11.90;65.30;;;;;;4861598;29;20468;-76
2020/12/17 10:18:30;;;;;;;3.87;3.67;;;12.10;64.20;;;;;;4861578;29;20462;-76
2020/12/17 10:20:57;;;;;;;4.53;4.13;;;12.30;63.80;;;;;;4860071;29;20500;-76
2020/12/17 10:23:24;;;;;;;4.67;4.27;;;12.40;62.60;;;;;;4861852;29;20536;-76
2020/12/17 10:25:50;;;;;;;4.53;4.13;;;12.50;62.20;;;;;;4860531;29;21099;-76
2020/12/17 10:28:17;;;;;;;5.30;4.13;;;12.50;62.10;;;;;;4861952;29;20469;-76
2020/12/17 10:30:43;;;;;;;4.17;3.87;;;12.50;62.00;;;;;;4861906;29;20457;-76
2020/12/17 10:33:10;;;;;;;5.63;4.30;;;12.50;62.30;;;;;;4861161;29;20458;-76
2020/12/17 10:35:36;;;;;;;4.73;4.10;;;12.50;62.40;;;;;;4861334;29;20837;-76
2020/12/17 10:38:04;;;;;;;4.90;4.40;;;12.50;62.30;;;;;;4857699;29;20461;-77
2020/12/17 10:40:31;;;;;;;5.90;4.63;;;12.50;62.70;;;;;;4866791;29;20508;-76
2020/12/17 10:42:57;;;;;;;4.53;4.13;;;12.70;63.40;;;;;;4870805;29;20466;-77
2020/12/17 10:45:24;;;;;;;5.60;4.87;;;12.90;63.40;;;;;;4858929;29;20465;-76
2020/12/17 10:47:50;;;;;;;4.67;4.00;;;13.10;61.80;;;;;;4860668;29;20839;-77
2020/12/17 10:50:17;;;;;;;4.37;3.97;;;13.20;61.80;;;;;;4858082;29;20548;-77
2020/12/17 10:52:45;;;;;;;4.97;4.23;;;13.70;61.70;;;;;;4860523;29;20502;-77
2020/12/17 10:55:12;;;;;;;4.43;3.70;;;14.40;60.00;;;;;;4859730;29;20469;-76
2020/12/17 10:57:39;;;;;;;7.70;4.17;;;15.10;58.60;;;;;;4861654;29;20469;-77
2020/12/17 11:00:06;;;;;;;5.23;3.87;;;15.70;57.00;;;;;;4843495;29;20572;-77
2020/12/17 11:02:33;;;;;;;3.73;3.43;;;16.30;56.30;;;;;;4860475;29;20963;-74
2020/12/17 11:04:59;;;;;;;4.33;4.00;;;16.80;54.00;;;;;;4860926;29;20974;-77
2020/12/17 11:07:26;;;;;;;4.60;4.20;;;17.50;52.90;;;;;;4861171;29;20473;-77
2020/12/17 11:09:53;;;;;;;5.53;4.10;;;18.00;50.40;;;;;;4859497;29;20477;-76
2020/12/17 11:12:20;;;;;;;4.43;4.10;;;17.50;50.10;;;;;;4860652;29;21180;-77
2020/12/17 11:14:47;;;;;;;5.80;4.67;;;16.80;51.00;;;;;;4859765;29;20454;-75
2020/12/17 11:17:14;;;;;;;4.77;4.07;;;16.20;52.30;;;;;;4861096;29;20465;-75
2020/12/17 11:19:40;;;;;;;4.43;4.03;;;15.70;53.50;;;;;;4859931;29;20869;-75
2020/12/17 11:22:07;;;;;;;4.53;4.13;;;15.30;54.40;;;;;;4858218;29;20497;-77
2020/12/17 11:24:33;;;;;;;4.40;3.90;;;15.00;55.30;;;;;;4859450;29;20842;-77
2020/12/17 11:27:00;;;;;;;4.40;4.03;;;14.80;55.90;;;;;;4858910;29;20474;-76
2020/12/17 11:29:27;;;;;;;7.80;4.10;;;14.60;56.40;;;;;;4860014;29;20514;-76
2020/12/17 11:31:54;;;;;;;4.23;3.83;;;14.50;57.00;;;;;;4860106;29;20457;-76
2020/12/17 11:34:21;;;;;;;4.43;4.03;;;14.30;57.30;;;;;;4860476;29;20453;-75
2020/12/17 11:36:48;;;;;;;5.37;4.17;;;14.20;57.60;;;;;;4859087;29;20541;-76
2020/12/17 11:39:15;;;;;;;4.00;3.70;;;14.20;58.00;;;;;;4859434;29;20501;-76
2020/12/17 11:41:42;;;;;;;4.53;4.13;;;14.10;58.30;;;;;;4860445;29;20457;-77
2020/12/17 11:44:08;;;;;;;5.30;4.80;;;14.00;58.50;;;;;;4858478;29;21006;-75
2020/12/17 11:46:36;;;;;;;5.03;3.60;;;14.00;58.80;;;;;;4860252;29;20545;-76
2020/12/17 11:49:02;;;;;;;4.00;3.70;;;14.00;59.20;;;;;;4854978;29;20518;-75
2020/12/17 11:51:29;;;;;;;5.40;4.00;;;14.00;59.30;;;;;;4859686;29;20468;-76
2020/12/17 11:53:55;;;;;;;5.07;4.43;;;14.10;59.50;;;;;;4856620;29;20515;-75
2020/12/17 11:56:22;;;;;;;6.70;5.03;;;14.20;59.50;;;;;;4860163;29;20481;-76
2020/12/17 11:58:49;;;;;;;4.77;4.37;;;14.20;59.20;;;;;;4859145;29;20465;-75
2020/12/17 12:01:15;;;;;;;4.73;4.33;;;14.20;58.90;;;;;;4859327;29;20501;-75
2020/12/17 12:03:43;;;;;;;5.90;4.47;;;14.20;58.80;;;;;;4860033;29;20505;-75
2020/12/17 12:06:14;;;;;;;6.10;3.70;;;14.20;58.80;;;;;;4859454;29;20973;-76
2020/12/17 12:08:41;;;;;;;5.77;4.30;;;14.20;58.90;;;;;;4858759;29;20560;-75
2020/12/17 12:11:07;;;;;;;4.27;3.97;;;14.20;59.00;;;;;;4859908;29;20462;-75
2020/12/17 12:13:34;;;;;;;4.20;3.80;;;14.10;58.70;;;;;;4858362;29;20465;-75
2020/12/17 12:16:00;;;;;;;4.83;4.40;;;14.10;58.80;;;;;;4858516;29;20880;-75
2020/12/17 12:18:27;;;;;;;4.57;4.17;;;14.00;59.00;;;;;;4859840;29;20465;-76
2020/12/17 12:20:55;;;;;;;5.13;4.67;;;14.00;59.10;;;;;;4859282;29;20505;-76
2020/12/17 12:23:22;;;;;;;4.23;3.93;;;14.00;59.20;;;;;;4845122;29;20459;-75
2020/12/17 12:25:48;;;;;;;5.03;4.37;;;14.00;59.20;;;;;;4857973;29;20477;-76
2020/12/17 12:28:15;;;;;;;5.37;4.80;;;14.00;59.30;;;;;;4859449;29;20465;-76
2020/12/17 12:30:42;;;;;;;5.30;4.33;;;14.10;59.40;;;;;;4859426;29;20496;-75
2020/12/17 12:33:08;;;;;;;5.13;4.60;;;14.10;59.60;;;;;;4859799;29;20458;-77
2020/12/17 12:35:35;;;;;;;6.37;4.50;;;14.20;59.80;;;;;;4859116;29;21038;-75
2020/12/17 12:38:03;;;;;;;5.10;4.63;;;14.20;59.80;;;;;;4858013;29;20459;-76
2020/12/17 12:40:32;;;;;;;4.23;3.70;;;14.30;59.70;;;;;;4864978;29;20535;-76
2020/12/17 12:42:58;;;;;;;5.60;4.23;;;14.30;59.60;;;;;;4857670;29;20466;-76
2020/12/17 12:45:25;;;;;;;6.50;4.17;;;14.20;59.40;;;;;;4859473;29;20458;-75
2020/12/17 12:47:51;;;;;;;4.67;4.27;;;14.20;59.40;;;;;;4858303;29;20462;-76
2020/12/17 12:50:18;;;;;;;6.13;5.53;;;14.10;59.40;;;;;;4856284;29;20962;-76
2020/12/17 12:52:45;;;;;;;10.20;5.70;;;14.10;59.60;;;;;;4856641;29;20457;-76
2020/12/17 12:55:13;;;;;;;7.10;6.50;;;14.00;59.80;;;;;;4858351;29;20548;-76